sensor_id;sensor_type;location;lat;lon;timestamp;pressure;altitude;pressure_sealevel;temperature;humidity
41467;BME280;27205;53.690;19.948;2023-04-01T00:03:40;97975.05;;;10.68;80.99
41467;BME280;27205;53.690;19.948;2023-04-01T00:08:44;97972.48;;;10.70;81.33
41467;BME280;27205;53.690;19.948;2023-04-01T00:13:48;97965.09;;;10.73;81.52
41467;BME280;27205;53.690;19.948;2023-04-01T00:18:52;97966.34;;;10.73;81.34
41467;BME280;27205;53.690;19.948;2023-04-01T00:23:55;97968.22;;;10.79;81.24
41467;BME280;27205;53.690;19.948;2023-04-01T00:28:59;97969.50;;;10.81;81.38
41467;BME280;27205;53.690;19.948;2023-04-01T00:34:03;97966.32;;;10.79;81.53
41467;BME280;27205;53.690;19.948;2023-04-01T00:39:07;97964.83;;;10.79;81.49
41467;BME280;27205;53.690;19.948;2023-04-01T00:44:27;97969.81;;;10.80;81.59
41467;BME280;27205;53.690;19.948;2023-04-01T00:49:37;97963.98;;;10.91;81.70
41467;BME280;27205;53.690;19.948;2023-04-01T00:54:46;97961.02;;;10.87;81.36
41467;BME280;27205;53.690;19.948;2023-04-01T00:59:52;97959.86;;;10.91;81.53
41467;BME280;27205;53.690;19.948;2023-04-01T01:04:57;97963.61;;;10.88;81.34
41467;BME280;27205;53.690;19.948;2023-04-01T01:10:15;97959.28;;;10.73;81.18
41467;BME280;27205;53.690;19.948;2023-04-01T01:20:53;97959.16;;;10.42;81.34
41467;BME280;27205;53.690;19.948;2023-04-01T01:31:37;97957.80;;;10.29;81.44
41467;BME280;27205;53.690;19.948;2023-04-01T01:36:42;97960.33;;;10.26;81.46
41467;BME280;27205;53.690;19.948;2023-04-01T01:41:48;97961.22;;;10.21;81.73
41467;BME280;27205;53.690;19.948;2023-04-01T01:46:52;97957.05;;;10.17;81.88
41467;BME280;27205;53.690;19.948;2023-04-01T01:51:56;97956.33;;;10.15;82.15
41467;BME280;27205;53.690;19.948;2023-04-01T01:57:08;97956.01;;;10.11;82.08
41467;BME280;27205;53.690;19.948;2023-04-01T02:02:13;97955.98;;;10.09;82.26
41467;BME280;27205;53.690;19.948;2023-04-01T02:07:24;97950.16;;;10.06;82.39
41467;BME280;27205;53.690;19.948;2023-04-01T02:12:29;97961.06;;;10.11;82.36
41467;BME280;27205;53.690;19.948;2023-04-01T02:17:35;97961.17;;;10.10;82.36
41467;BME280;27205;53.690;19.948;2023-04-01T02:22:46;97954.09;;;10.13;82.50
41467;BME280;27205;53.690;19.948;2023-04-01T02:27:51;97952.58;;;10.15;82.45
41467;BME280;27205;53.690;19.948;2023-04-01T02:32:57;97951.61;;;10.05;82.67
41467;BME280;27205;53.690;19.948;2023-04-01T02:38:02;97953.40;;;10.12;82.58
41467;BME280;27205;53.690;19.948;2023-04-01T02:43:05;97956.27;;;10.01;82.96
41467;BME280;27205;53.690;19.948;2023-04-01T02:48:09;97957.27;;;9.96;82.95
41467;BME280;27205;53.690;19.948;2023-04-01T02:53:12;97958.13;;;9.95;83.20
41467;BME280;27205;53.690;19.948;2023-04-01T02:58:16;97961.45;;;9.98;83.15
41467;BME280;27205;53.690;19.948;2023-04-01T03:03:20;97958.69;;;10.02;82.91
41467;BME280;27205;53.690;19.948;2023-04-01T03:08:24;97959.46;;;9.99;82.74
41467;BME280;27205;53.690;19.948;2023-04-01T03:13:27;97960.91;;;9.95;82.85
41467;BME280;27205;53.690;19.948;2023-04-01T03:18:31;97965.10;;;9.97;82.99
41467;BME280;27205;53.690;19.948;2023-04-01T03:23:35;97966.48;;;9.95;82.64
41467;BME280;27205;53.690;19.948;2023-04-01T03:28:38;97970.67;;;9.81;83.58
41467;BME280;27205;53.690;19.948;2023-04-01T03:33:42;97971.08;;;9.70;83.85
41467;BME280;27205;53.690;19.948;2023-04-01T03:38:46;97971.33;;;9.69;83.70
41467;BME280;27205;53.690;19.948;2023-04-01T03:43:49;97970.80;;;9.64;84.01
41467;BME280;27205;53.690;19.948;2023-04-01T03:48:53;97971.36;;;9.55;84.29
41467;BME280;27205;53.690;19.948;2023-04-01T03:53:56;97973.71;;;9.55;84.40
41467;BME280;27205;53.690;19.948;2023-04-01T03:59:05;97977.12;;;9.53;84.60
41467;BME280;27205;53.690;19.948;2023-04-01T04:04:11;97980.67;;;9.52;84.56
41467;BME280;27205;53.690;19.948;2023-04-01T04:09:18;97982.48;;;9.43;85.03
41467;BME280;27205;53.690;19.948;2023-04-01T04:14:25;97988.86;;;9.46;85.32
41467;BME280;27205;53.690;19.948;2023-04-01T04:19:32;97990.81;;;9.46;85.05
41467;BME280;27205;53.690;19.948;2023-04-01T04:24:37;97996.81;;;9.46;85.50
41467;BME280;27205;53.690;19.948;2023-04-01T04:29:40;97999.75;;;9.45;85.47
41467;BME280;27205;53.690;19.948;2023-04-01T04:34:44;98000.01;;;9.45;85.68
41467;BME280;27205;53.690;19.948;2023-04-01T04:39:47;98000.75;;;9.47;85.68
41467;BME280;27205;53.690;19.948;2023-04-01T04:44:51;98000.23;;;9.50;86.07
41467;BME280;27205;53.690;19.948;2023-04-01T04:49:54;98002.91;;;9.44;85.95
41467;BME280;27205;53.690;19.948;2023-04-01T04:54:57;98005.64;;;9.37;86.42
41467;BME280;27205;53.690;19.948;2023-04-01T05:00:01;98008.77;;;9.31;86.57
41467;BME280;27205;53.690;19.948;2023-04-01T05:05:05;98013.93;;;9.30;86.85
41467;BME280;27205;53.690;19.948;2023-04-01T05:10:09;98019.26;;;9.33;86.97
41467;BME280;27205;53.690;19.948;2023-04-01T05:15:13;98027.56;;;9.39;86.93
41467;BME280;27205;53.690;19.948;2023-04-01T05:20:17;98026.50;;;9.42;87.00
41467;BME280;27205;53.690;19.948;2023-04-01T05:25:20;98032.66;;;9.40;87.18
41467;BME280;27205;53.690;19.948;2023-04-01T05:30:24;98035.95;;;9.40;87.02
41467;BME280;27205;53.690;19.948;2023-04-01T05:35:27;98036.08;;;9.34;87.39
41467;BME280;27205;53.690;19.948;2023-04-01T05:40:32;98040.60;;;9.29;87.75
41467;BME280;27205;53.690;19.948;2023-04-01T05:45:35;98046.65;;;9.26;87.67
41467;BME280;27205;53.690;19.948;2023-04-01T05:50:40;98048.59;;;9.29;87.73
41467;BME280;27205;53.690;19.948;2023-04-01T05:55:45;98049.41;;;9.34;87.43
41467;BME280;27205;53.690;19.948;2023-04-01T06:00:48;98052.81;;;9.34;87.40
41467;BME280;27205;53.690;19.948;2023-04-01T06:06:15;98061.29;;;9.38;87.22
41467;BME280;27205;53.690;19.948;2023-04-01T06:27:20;98069.52;;;9.51;87.20
41467;BME280;27205;53.690;19.948;2023-04-01T06:54:11;98091.75;;;9.26;86.94
41467;BME280;27205;53.690;19.948;2023-04-01T06:59:22;98100.41;;;9.20;87.06
41467;BME280;27205;53.690;19.948;2023-04-01T07:04:31;98102.72;;;9.15;87.08
41467;BME280;27205;53.690;19.948;2023-04-01T07:09:40;98110.80;;;9.18;87.03
41467;BME280;27205;53.690;19.948;2023-04-01T07:14:46;98116.75;;;9.19;86.90
41467;BME280;27205;53.690;19.948;2023-04-01T07:24:54;98126.16;;;9.09;87.14
41467;BME280;27205;53.690;19.948;2023-04-01T07:30:01;98129.02;;;9.08;87.07
41467;BME280;27205;53.690;19.948;2023-04-01T07:40:43;98136.23;;;9.15;86.52
41467;BME280;27205;53.690;19.948;2023-04-01T07:46:07;98137.21;;;8.99;87.19
41467;BME280;27205;53.690;19.948;2023-04-01T07:56:43;98147.49;;;9.02;87.26
41467;BME280;27205;53.690;19.948;2023-04-01T08:02:15;98152.69;;;9.02;87.36
41467;BME280;27205;53.690;19.948;2023-04-01T08:07:25;98153.02;;;9.11;87.14
41467;BME280;27205;53.690;19.948;2023-04-01T08:23:22;98164.23;;;9.43;86.81
41467;BME280;27205;53.690;19.948;2023-04-01T08:28:35;98165.98;;;9.56;86.65
41467;BME280;27205;53.690;19.948;2023-04-01T08:33:44;98173.92;;;9.71;86.37
41467;BME280;27205;53.690;19.948;2023-04-01T08:39:04;98179.75;;;9.76;85.99
41467;BME280;27205;53.690;19.948;2023-04-01T08:44:20;98182.09;;;9.79;86.03
41467;BME280;27205;53.690;19.948;2023-04-01T09:05:47;98190.17;;;10.43;84.87
41467;BME280;27205;53.690;19.948;2023-04-01T09:36:04;98236.20;;;11.64;82.31
41467;BME280;27205;53.690;19.948;2023-04-01T09:41:32;98244.70;;;11.49;82.18
41467;BME280;27205;53.690;19.948;2023-04-01T09:57:30;98256.40;;;11.11;81.29
41467;BME280;27205;53.690;19.948;2023-04-01T10:02:59;98257.70;;;10.93;81.09
41467;BME280;27205;53.690;19.948;2023-04-01T10:29:51;98286.50;;;10.50;80.83
41467;BME280;27205;53.690;19.948;2023-04-01T10:35:45;98288.50;;;10.63;80.71
41467;BME280;27205;53.690;19.948;2023-04-01T10:41:03;98292.88;;;10.58;80.84
41467;BME280;27205;53.690;19.948;2023-04-01T10:46:38;98295.34;;;10.73;80.68
41467;BME280;27205;53.690;19.948;2023-04-01T11:03:21;98308.04;;;10.84;80.28
41467;BME280;27205;53.690;19.948;2023-04-01T11:14:37;98316.30;;;10.47;79.90
41467;BME280;27205;53.690;19.948;2023-04-01T11:31:03;98325.10;;;10.59;79.57
41467;BME280;27205;53.690;19.948;2023-04-01T11:36:37;98329.11;;;10.49;79.89
41467;BME280;27205;53.690;19.948;2023-04-01T11:47:13;98330.20;;;10.41;79.61
41467;BME280;27205;53.690;19.948;2023-04-01T12:03:21;98359.34;;;10.22;79.42
41467;BME280;27205;53.690;19.948;2023-04-01T12:14:16;98367.90;;;9.70;79.99
41467;BME280;27205;53.690;19.948;2023-04-01T12:30:04;98380.69;;;9.79;79.88
41467;BME280;27205;53.690;19.948;2023-04-01T12:35:26;98389.78;;;9.82;79.99
41467;BME280;27205;53.690;19.948;2023-04-01T13:12:38;98424.32;;;9.88;79.18
41467;BME280;27205;53.690;19.948;2023-04-01T13:42:59;98452.27;;;9.85;78.86
41467;BME280;27205;53.690;19.948;2023-04-01T14:42:16;98512.36;;;8.37;83.52
41467;BME280;27205;53.690;19.948;2023-04-01T14:47:34;98518.56;;;8.26;83.84
41467;BME280;27205;53.690;19.948;2023-04-01T15:08:34;98542.56;;;7.75;85.09
41467;BME280;27205;53.690;19.948;2023-04-01T15:19:50;98561.28;;;7.50;85.88
41467;BME280;27205;53.690;19.948;2023-04-01T15:41:14;98596.14;;;7.36;87.14
41467;BME280;27205;53.690;19.948;2023-04-01T16:23:02;98647.75;;;6.94;89.02
41467;BME280;27205;53.690;19.948;2023-04-01T16:44:25;98685.45;;;6.55;90.30
41467;BME280;27205;53.690;19.948;2023-04-01T16:49:42;98694.67;;;6.53;90.03
41467;BME280;27205;53.690;19.948;2023-04-01T16:55:18;98695.80;;;6.53;90.10
41467;BME280;27205;53.690;19.948;2023-04-01T17:00:26;98708.41;;;6.49;90.53
41467;BME280;27205;53.690;19.948;2023-04-01T17:22:34;98746.52;;;6.22;90.58
41467;BME280;27205;53.690;19.948;2023-04-01T17:43:32;98773.21;;;6.04;90.28
41467;BME280;27205;53.690;19.948;2023-04-01T17:53:57;98790.42;;;5.96;90.42
41467;BME280;27205;53.690;19.948;2023-04-01T18:04:25;98801.61;;;5.83;90.38
41467;BME280;27205;53.690;19.948;2023-04-01T18:15:01;98816.41;;;5.76;90.50
41467;BME280;27205;53.690;19.948;2023-04-01T18:30:28;98836.16;;;5.81;90.19
41467;BME280;27205;53.690;19.948;2023-04-01T18:35:53;98848.05;;;5.70;90.28
41467;BME280;27205;53.690;19.948;2023-04-01T18:47:05;98857.58;;;5.51;90.68
41467;BME280;27205;53.690;19.948;2023-04-01T18:52:36;98863.47;;;5.50;90.74
41467;BME280;27205;53.690;19.948;2023-04-01T19:03:34;98880.05;;;5.49;90.66
41467;BME280;27205;53.690;19.948;2023-04-01T19:08:42;98885.98;;;5.49;90.43
41467;BME280;27205;53.690;19.948;2023-04-01T19:24:32;98911.56;;;5.37;90.24
41467;BME280;27205;53.690;19.948;2023-04-01T19:41:04;98921.89;;;5.20;90.32
41467;BME280;27205;53.690;19.948;2023-04-01T19:46:57;98930.88;;;5.14;90.63
41467;BME280;27205;53.690;19.948;2023-04-01T19:52:56;98941.58;;;5.19;90.60
41467;BME280;27205;53.690;19.948;2023-04-01T20:01:35;98944.73;;;5.18;90.57
41467;BME280;27205;53.690;19.948;2023-04-01T20:07:37;98954.07;;;5.22;90.01
41467;BME280;27205;53.690;19.948;2023-04-01T20:42:34;98990.54;;;5.00;90.18
41467;BME280;27205;53.690;19.948;2023-04-01T21:35:42;99042.14;;;4.78;90.09
41467;BME280;27205;53.690;19.948;2023-04-01T21:41:00;99042.52;;;4.74;90.09
41467;BME280;27205;53.690;19.948;2023-04-01T21:52:17;99046.98;;;4.53;90.72
41467;BME280;27205;53.690;19.948;2023-04-01T21:57:53;99049.56;;;4.43;91.30
41467;BME280;27205;53.690;19.948;2023-04-01T22:35:30;99086.48;;;4.13;92.01
41467;BME280;27205;53.690;19.948;2023-04-01T23:14:11;99122.84;;;3.39;91.89
41467;BME280;27205;53.690;19.948;2023-04-01T23:19:29;99130.57;;;3.35;91.98
41467;BME280;27205;53.690;19.948;2023-04-01T23:36:15;99148.36;;;3.16;91.69
41467;BME280;27205;53.690;19.948;2023-04-01T23:41:23;99155.71;;;3.00;91.49
41467;BME280;27205;53.690;19.948;2023-04-01T23:46:30;99160.16;;;2.80;91.46
41467;BME280;27205;53.690;19.948;2023-04-01T23:51:38;99170.95;;;2.68;91.38
41467;BME280;27205;53.690;19.948;2023-04-01T23:56:46;99176.60;;;2.59;91.48
